createdAt,value
2022-11-10T00:01:33.602Z,60.60
2022-11-10T00:04:05.242Z,66.00
2022-11-10T00:06:37.245Z,78.50
2022-11-10T00:09:09.223Z,68.10
2022-11-10T00:11:41.383Z,62.40
2022-11-10T00:14:31.359Z,75.10
2022-11-10T00:17:04.749Z,59.50
2022-11-10T00:19:37.978Z,56.70
2022-11-10T00:22:09.664Z,61.30
2022-11-10T00:24:41.456Z,66.10
2022-11-10T00:27:14.824Z,78.00
2022-11-10T00:29:46.728Z,57.90
2022-11-10T00:32:18.694Z,69.80
2022-11-10T00:34:50.639Z,57.30
2022-11-10T00:37:22.909Z,66.90
2022-11-10T00:39:54.528Z,64.60
2022-11-10T00:42:26.169Z,66.20
2022-11-10T00:44:57.919Z,77.50
2022-11-10T00:47:29.687Z,60.70
2022-11-10T00:50:01.362Z,81.90
2022-11-10T00:52:33.226Z,64.10
2022-11-10T00:55:05.304Z,69.20
2022-11-10T00:57:37.213Z,60.80
2022-11-10T01:00:11.838Z,58.50
2022-11-10T01:02:44.975Z,65.90
2022-11-10T01:05:16.965Z,65.00
2022-11-10T01:07:48.744Z,61.20
2022-11-10T01:10:20.742Z,69.00
2022-11-10T01:12:52.791Z,57.00
2022-11-10T01:15:27.815Z,81.80
2022-11-10T01:18:00.321Z,72.10
2022-11-10T01:20:32.235Z,73.30
2022-11-10T01:23:04.827Z,60.30
2022-11-10T01:25:36.535Z,61.10
2022-11-10T01:28:08.379Z,55.20
2022-11-10T01:30:40.337Z,66.80
2022-11-10T01:33:12.157Z,66.60
2022-11-10T01:35:43.991Z,65.60
2022-11-10T01:38:15.935Z,62.70
2022-11-10T01:40:47.752Z,69.80
2022-11-10T01:43:20.183Z,68.60
2022-11-10T01:45:56.376Z,62.80
2022-11-10T01:48:33.349Z,65.90
2022-11-10T01:51:09.930Z,68.70
2022-11-10T01:53:45.368Z,74.10
2022-11-10T01:56:17.888Z,58.80
2022-11-10T01:58:52.744Z,65.00
2022-11-10T02:01:25.283Z,63.30
2022-11-10T02:03:59.764Z,65.50
2022-11-10T02:06:35.144Z,69.20
2022-11-10T02:09:07.680Z,61.40
2022-11-10T02:11:40.773Z,75.30
2022-11-10T02:14:12.783Z,55.90
2022-11-10T02:16:44.810Z,71.00
2022-11-10T02:19:22.758Z,75.30
2022-11-10T02:21:54.438Z,62.90
2022-11-10T02:24:26.757Z,66.90
2022-11-10T02:26:59.116Z,58.40
2022-11-10T02:29:30.964Z,71.20
2022-11-10T02:32:02.645Z,70.50
2022-11-10T02:34:34.476Z,74.50
2022-11-10T02:37:06.173Z,70.30
2022-11-10T02:39:37.995Z,64.20
2022-11-10T02:42:10.553Z,68.10
2022-11-10T02:44:43.140Z,61.00
2022-11-10T02:47:15.167Z,62.30
2022-11-10T02:49:47.172Z,63.70
2022-11-10T02:52:18.795Z,62.50
2022-11-10T02:54:50.610Z,76.80
2022-11-10T02:57:22.247Z,68.20
2022-11-10T02:59:54.507Z,68.40
2022-11-10T03:02:31.982Z,63.30
2022-11-10T03:05:04.713Z,63.40
2022-11-10T03:07:36.631Z,68.30
2022-11-10T03:10:10.545Z,59.50
2022-11-10T03:12:42.265Z,63.10
2022-11-10T03:15:14.728Z,64.80
2022-11-10T03:17:46.508Z,64.90
2022-11-10T03:20:19.260Z,66.10
2022-11-10T03:22:51.229Z,71.10
2022-11-10T03:25:23.040Z,82.80
2022-11-10T03:27:55.053Z,61.20
2022-11-10T03:30:27.514Z,74.10
2022-11-10T03:32:59.408Z,61.90
2022-11-10T03:35:31.276Z,71.90
2022-11-10T03:38:03.101Z,73.70
2022-11-10T03:40:56.939Z,59.50
2022-11-10T03:43:26.920Z,65.20
2022-11-10T03:45:58.757Z,61.20
2022-11-10T03:48:30.644Z,64.40
2022-11-10T03:51:03.157Z,74.70
2022-11-10T03:53:35.112Z,62.90
2022-11-10T03:56:08.276Z,64.80
2022-11-10T03:58:39.915Z,72.00
2022-11-10T04:01:11.749Z,73.50
2022-11-10T04:03:47.452Z,63.70
2022-11-10T04:06:39.926Z,65.90
2022-11-10T04:09:11.960Z,71.50
2022-11-10T04:12:01.435Z,64.90
2022-11-10T04:15:02.889Z,61.30
2022-11-10T04:17:34.789Z,70.00
2022-11-10T04:20:08.301Z,66.10
2022-11-10T04:22:58.287Z,64.30
2022-11-10T04:25:31.542Z,68.90
2022-11-10T04:28:03.452Z,59.30
2022-11-10T04:30:35.202Z,77.30
2022-11-10T04:33:08.612Z,73.90
2022-11-10T04:35:40.366Z,66.30
2022-11-10T04:38:12.156Z,68.60
2022-11-10T04:40:44.284Z,76.80
2022-11-10T04:43:16.262Z,64.80
2022-11-10T04:45:47.967Z,75.50
2022-11-10T04:48:19.894Z,79.40
2022-11-10T04:50:51.707Z,80.90
2022-11-10T04:53:25.733Z,71.70
2022-11-10T04:55:57.404Z,69.60
2022-11-10T04:58:29.648Z,74.40
2022-11-10T05:01:01.454Z,77.20
2022-11-10T05:03:33.319Z,90.80
2022-11-10T05:06:05.342Z,74.00
2022-11-10T05:08:37.429Z,73.60
2022-11-10T05:11:09.949Z,78.70
2022-11-10T05:13:42.198Z,96.60
2022-11-10T05:16:14.472Z,66.60
2022-11-10T05:18:46.803Z,82.70
2022-11-10T05:21:18.500Z,80.30
2022-11-10T05:23:50.389Z,78.20
2022-11-10T05:26:22.178Z,85.00
2022-11-10T05:28:53.931Z,101.30
2022-11-10T05:31:25.583Z,90.20
2022-11-10T05:33:57.872Z,91.30
2022-11-10T05:36:29.842Z,89.30
2022-11-10T05:39:02.014Z,104.50
2022-11-10T05:41:33.994Z,84.00
2022-11-10T05:44:05.778Z,107.10
2022-11-10T05:46:37.758Z,91.00
2022-11-10T05:49:09.708Z,89.60
2022-11-10T05:51:41.432Z,95.60
2022-11-10T05:54:13.798Z,99.80
2022-11-10T05:56:46.107Z,83.00
2022-11-10T05:59:18.157Z,95.90
2022-11-10T06:01:51.055Z,90.60
2022-11-10T06:04:22.901Z,87.40
2022-11-10T06:06:55.174Z,82.30
2022-11-10T06:09:27.354Z,109.80
2022-11-10T06:11:59.022Z,87.60
2022-11-10T06:14:30.851Z,92.30
2022-11-10T06:17:02.723Z,91.20
2022-11-10T06:19:34.844Z,105.40
2022-11-10T06:22:08.017Z,103.60
2022-11-10T06:24:41.232Z,101.80
2022-11-10T06:27:13.180Z,98.60
2022-11-10T06:29:45.538Z,97.40
2022-11-10T06:32:17.268Z,87.70
2022-11-10T06:34:49.335Z,91.70
2022-11-10T06:37:21.517Z,98.60
2022-11-10T06:39:53.568Z,103.40
2022-11-10T06:42:29.545Z,101.30
2022-11-10T06:45:04.212Z,87.00
2022-11-10T06:47:39.288Z,102.60
2022-11-10T06:50:12.351Z,93.20
2022-11-10T06:52:44.126Z,97.50
2022-11-10T06:55:16.607Z,100.90
2022-11-10T06:57:48.395Z,86.10
2022-11-10T07:00:22.052Z,100.20
2022-11-10T07:03:02.613Z,81.20
2022-11-10T07:05:36.825Z,102.10
2022-11-10T07:08:10.703Z,92.80
2022-11-10T07:13:14.625Z,96.50
2022-11-10T07:15:46.431Z,94.10
2022-11-10T07:18:18.593Z,94.60
2022-11-10T07:20:50.447Z,97.90
2022-11-10T07:23:22.456Z,95.70
2022-11-10T07:25:54.471Z,100.50
2022-11-10T07:28:28.484Z,102.40
2022-11-10T07:31:00.551Z,100.10
2022-11-10T07:33:32.305Z,81.40
2022-11-10T07:36:07.421Z,95.90
2022-11-10T07:38:39.379Z,98.10
2022-11-10T07:41:11.913Z,92.60
2022-11-10T07:43:43.571Z,92.20
2022-11-10T07:46:15.515Z,89.90
2022-11-10T07:48:47.639Z,94.90
2022-11-10T07:51:19.476Z,92.40
2022-11-10T07:53:51.241Z,85.10
2022-11-10T07:56:23.451Z,89.70
2022-11-10T07:58:55.181Z,98.80
2022-11-10T08:01:28.099Z,95.80
2022-11-10T08:03:59.966Z,102.00
2022-11-10T08:06:35.993Z,101.80
2022-11-10T08:09:08.305Z,80.50
2022-11-10T08:11:41.035Z,95.50
2022-11-10T08:14:12.849Z,94.90
2022-11-10T08:16:44.605Z,95.90
2022-11-10T08:19:18.037Z,90.30
2022-11-10T08:21:50.095Z,88.00
2022-11-10T08:24:22.163Z,87.90
2022-11-10T08:26:57.079Z,87.70
2022-11-10T08:29:28.982Z,96.50
2022-11-10T08:32:00.887Z,88.90
2022-11-10T08:34:32.826Z,88.80
2022-11-10T08:37:04.611Z,81.70
2022-11-10T08:39:39.341Z,76.90
2022-11-10T08:42:11.874Z,80.00
2022-11-10T08:44:43.635Z,83.70
2022-11-10T08:47:15.497Z,82.90
2022-11-10T08:49:47.658Z,87.00
2022-11-10T08:52:19.596Z,69.80
2022-11-10T08:54:51.473Z,69.70
2022-11-10T08:57:23.663Z,82.20
2022-11-10T08:59:55.425Z,80.80
2022-11-10T09:02:27.223Z,72.10
2022-11-10T09:04:59.092Z,71.80
2022-11-10T09:07:31.363Z,77.50
2022-11-10T09:10:08.256Z,68.90
2022-11-10T09:12:40.720Z,71.60
2022-11-10T09:15:13.256Z,73.60
2022-11-10T09:17:45.733Z,64.30
2022-11-10T09:20:18.270Z,70.10
2022-11-10T09:22:50.054Z,75.10
2022-11-10T09:25:21.834Z,65.30
2022-11-10T09:27:53.964Z,72.50
2022-11-10T09:30:26.487Z,77.10
2022-11-10T09:33:00.465Z,69.10
2022-11-10T09:35:32.670Z,77.80
2022-11-10T09:38:04.926Z,68.40
2022-11-10T09:40:48.990Z,72.00
2022-11-10T09:45:58.004Z,72.30
2022-11-10T09:48:32.427Z,66.60
2022-11-10T09:53:42.598Z,60.80
2022-11-10T09:56:18.334Z,68.60
2022-11-10T09:58:50.320Z,65.80
2022-11-10T10:01:31.650Z,66.10
2022-11-10T10:04:09.929Z,63.40
2022-11-10T10:07:09.713Z,59.00
2022-11-10T10:09:44.403Z,65.70
2022-11-10T10:12:24.916Z,64.70
2022-11-10T10:15:12.318Z,64.90
2022-11-10T10:17:52.254Z,61.70
2022-11-10T10:20:29.480Z,61.30
2022-11-10T10:23:10.973Z,60.40
2022-11-10T10:25:44.761Z,58.80
2022-11-10T10:28:21.432Z,59.80
2022-11-10T10:30:54.345Z,55.00
2022-11-10T10:33:26.409Z,59.40
2022-11-10T10:35:59.070Z,56.30
2022-11-10T10:38:34.828Z,61.50
2022-11-10T10:41:18.388Z,53.10
2022-11-10T10:43:56.196Z,50.40
2022-11-10T10:46:32.897Z,45.50
2022-11-10T10:49:31.727Z,51.60
2022-11-10T10:52:13.104Z,48.70
2022-11-10T10:54:44.845Z,53.90
2022-11-10T10:57:25.812Z,50.80
2022-11-10T11:00:17.382Z,43.50
2022-11-10T11:03:04.749Z,50.90
2022-11-10T11:05:36.971Z,49.30
2022-11-10T11:08:25.678Z,43.80
2022-11-10T11:10:57.577Z,38.10
2022-11-10T11:13:30.683Z,47.60
2022-11-10T11:16:04.839Z,44.50
2022-11-10T11:18:39.920Z,41.30
2022-11-10T11:21:25.278Z,43.70
2022-11-10T11:24:18.482Z,36.10
2022-11-10T11:26:57.417Z,41.50
2022-11-10T11:29:47.375Z,45.30
2022-11-10T11:32:29.357Z,36.60
2022-11-10T11:35:28.472Z,34.00
2022-11-10T11:38:07.325Z,34.60
2022-11-10T11:40:47.023Z,38.00
2022-11-10T11:43:28.019Z,37.60
2022-11-10T11:46:04.464Z,34.70
2022-11-10T11:48:48.140Z,29.20
2022-11-10T11:51:24.674Z,35.30
2022-11-10T11:54:17.753Z,37.50
2022-11-10T11:56:51.950Z,33.70
2022-11-10T11:59:36.348Z,39.60
2022-11-10T12:02:29.997Z,32.10
2022-11-10T12:05:13.196Z,27.10
2022-11-10T12:07:52.223Z,35.80
2022-11-10T12:10:32.643Z,33.20
2022-11-10T12:13:16.910Z,35.50
2022-11-10T12:15:54.206Z,29.50
2022-11-10T12:18:34.714Z,36.60
2022-11-10T12:21:28.929Z,32.10
2022-11-10T12:24:25.086Z,27.40
2022-11-10T12:27:02.539Z,26.00
2022-11-10T12:29:37.398Z,26.30
2022-11-10T12:32:13.294Z,28.70
2022-11-10T12:34:47.634Z,27.40
2022-11-10T12:37:27.647Z,22.30
2022-11-10T12:40:05.351Z,22.00
2022-11-10T12:42:39.474Z,28.00
2022-11-10T12:45:21.274Z,21.80
2022-11-10T12:47:53.992Z,26.40
2022-11-10T12:50:44.473Z,28.70
2022-11-10T12:53:23.382Z,26.90
2022-11-10T12:56:00.961Z,28.70
2022-11-10T12:58:32.720Z,27.80
2022-11-10T13:01:06.896Z,23.40
2022-11-10T13:03:40.444Z,21.70
2022-11-10T13:06:27.608Z,22.40
2022-11-10T13:08:59.624Z,27.30
2022-11-10T13:11:34.376Z,27.10
2022-11-10T13:14:20.016Z,21.80
2022-11-10T13:16:54.661Z,27.00
2022-11-10T13:19:51.295Z,21.30
2022-11-10T13:22:37.051Z,20.60
2022-11-10T13:25:52.807Z,18.20
2022-11-10T13:28:59.090Z,20.60
2022-11-10T13:31:56.609Z,22.40
2022-11-10T13:34:48.516Z,23.00
2022-11-10T13:37:50.871Z,22.90
2022-11-10T13:40:36.235Z,21.40
2022-11-10T13:43:31.390Z,29.00
2022-11-10T13:46:07.786Z,27.70
2022-11-10T13:49:04.345Z,33.20
2022-11-10T13:51:56.403Z,23.50
2022-11-10T13:55:00.519Z,24.20
2022-11-10T13:57:39.181Z,25.50
2022-11-10T14:00:30.251Z,23.80
2022-11-10T14:03:25.653Z,18.20
2022-11-10T14:06:18.041Z,23.90
2022-11-10T14:08:56.257Z,20.50
2022-11-10T14:11:37.087Z,20.00
2022-11-10T14:14:15.572Z,24.70
2022-11-10T14:16:47.460Z,22.60
2022-11-10T14:19:36.427Z,23.50
2022-11-10T14:22:16.013Z,25.90
2022-11-10T14:24:55.251Z,21.70
2022-11-10T14:27:28.518Z,25.90
2022-11-10T14:30:12.695Z,22.50
2022-11-10T14:32:44.713Z,21.90
2022-11-10T14:35:23.790Z,23.10
2022-11-10T14:38:00.653Z,23.60
2022-11-10T14:40:33.712Z,20.80
2022-11-10T14:43:05.621Z,22.70
2022-11-10T14:45:41.518Z,20.10
2022-11-10T14:48:24.244Z,26.50
2022-11-10T14:50:57.966Z,26.90
2022-11-10T14:53:36.567Z,24.80
2022-11-10T14:56:15.112Z,27.00
2022-11-10T14:58:49.160Z,23.00
2022-11-10T15:01:33.951Z,24.80
2022-11-10T15:04:10.337Z,27.40
2022-11-10T15:06:46.826Z,20.60
2022-11-10T15:09:25.550Z,32.10
2022-11-10T15:12:09.341Z,25.10
2022-11-10T15:14:44.851Z,21.60
2022-11-10T15:17:18.762Z,29.60
2022-11-10T15:19:57.367Z,28.20
2022-11-10T15:22:37.943Z,26.80
2022-11-10T15:25:18.186Z,27.10
2022-11-10T15:28:01.712Z,25.30
2022-11-10T15:30:33.737Z,23.80
2022-11-10T15:33:11.996Z,30.60
2022-11-10T15:35:43.716Z,33.80
2022-11-10T15:38:29.736Z,26.10
2022-11-10T15:41:16.145Z,23.90
2022-11-10T15:43:48.300Z,31.30
2022-11-10T15:46:21.587Z,27.10
2022-11-10T15:48:56.087Z,30.90
2022-11-10T15:51:27.735Z,30.00
2022-11-10T15:53:59.674Z,25.80
2022-11-10T15:56:32.849Z,28.00
2022-11-10T15:59:04.969Z,26.60
2022-11-10T16:01:36.748Z,23.00
2022-11-10T16:04:11.621Z,26.40
2022-11-10T16:06:43.870Z,22.70
2022-11-10T16:09:15.837Z,22.20
2022-11-10T16:11:48.293Z,24.00
2022-11-10T16:14:20.590Z,26.10
2022-11-10T16:16:52.256Z,34.40
2022-11-10T16:19:24.204Z,33.30
2022-11-10T16:21:56.764Z,27.10
2022-11-10T16:24:29.458Z,26.30
2022-11-10T16:27:01.153Z,23.00
2022-11-10T16:29:34.848Z,21.70
2022-11-10T16:32:07.110Z,28.00
2022-11-10T16:34:39.544Z,23.40
2022-11-10T16:37:13.980Z,26.80
2022-11-10T16:39:47.199Z,23.30
2022-11-10T16:42:24.805Z,23.50
2022-11-10T16:44:56.964Z,19.80
2022-11-10T16:47:32.930Z,23.50
2022-11-10T16:50:07.668Z,22.30
2022-11-10T16:52:39.662Z,27.80
2022-11-10T16:55:15.555Z,25.60
2022-11-10T16:57:50.877Z,20.40
2022-11-10T17:00:23.763Z,26.30
2022-11-10T17:03:09.399Z,19.90
2022-11-10T17:05:42.908Z,22.00
2022-11-10T17:08:22.846Z,23.60
2022-11-10T17:10:57.145Z,27.30
2022-11-10T17:13:29.024Z,25.50
2022-11-10T17:16:05.183Z,20.40
2022-11-10T17:18:37.570Z,19.30
2022-11-10T17:21:10.694Z,23.90
2022-11-10T17:23:42.739Z,23.40
2022-11-10T17:26:16.694Z,30.80
2022-11-10T17:31:19.270Z,23.90
2022-11-10T17:33:50.959Z,23.60
2022-11-10T17:36:25.663Z,26.20
2022-11-10T17:38:59.568Z,21.80
2022-11-10T17:41:32.287Z,25.10
2022-11-10T17:44:04.204Z,24.70
2022-11-10T17:46:36.886Z,20.10
2022-11-10T17:49:08.962Z,29.70
2022-11-10T17:51:41.929Z,23.10
2022-11-10T17:54:21.217Z,30.10
2022-11-10T17:56:53.160Z,31.80
2022-11-10T17:59:24.773Z,31.90
2022-11-10T18:01:59.107Z,26.70
2022-11-10T18:04:31.885Z,29.10
2022-11-10T18:07:04.030Z,30.80
2022-11-10T18:09:37.401Z,24.00
2022-11-10T18:12:09.432Z,28.20
2022-11-10T18:14:41.073Z,32.20
2022-11-10T18:17:13.048Z,30.00
2022-11-10T18:19:52.449Z,31.60
2022-11-10T18:22:31.350Z,22.40
2022-11-10T18:25:06.228Z,29.90
2022-11-10T18:27:39.213Z,29.30
2022-11-10T18:30:13.138Z,38.40
2022-11-10T18:32:44.931Z,30.50
2022-11-10T18:35:17.906Z,26.80
2022-11-10T18:37:51.234Z,20.50
2022-11-10T18:40:23.200Z,32.40
2022-11-10T18:43:02.991Z,43.00
2022-11-10T18:45:38.141Z,44.80
2022-11-10T18:48:11.171Z,42.30
2022-11-10T18:50:44.515Z,38.00
2022-11-10T18:53:16.565Z,34.60
2022-11-10T18:55:58.397Z,33.00
2022-11-10T18:58:31.216Z,32.70
2022-11-10T19:01:07.699Z,26.20
2022-11-10T19:03:42.840Z,25.60
2022-11-10T19:06:15.795Z,31.60
2022-11-10T19:08:51.761Z,26.90
2022-11-10T19:11:23.654Z,29.50
2022-11-10T19:13:55.761Z,36.50
2022-11-10T19:16:27.508Z,27.20
2022-11-10T19:19:00.329Z,31.80
2022-11-10T19:21:34.297Z,27.60
2022-11-10T19:24:10.211Z,34.80
2022-11-10T19:26:41.855Z,39.90
2022-11-10T19:29:24.181Z,26.80
2022-11-10T19:31:56.192Z,26.50
2022-11-10T19:34:31.842Z,31.70
2022-11-10T19:37:04.284Z,30.10
2022-11-10T19:39:43.575Z,34.80
2022-11-10T19:42:15.540Z,34.40
2022-11-10T19:44:49.692Z,27.40
2022-11-10T19:47:21.434Z,30.80
2022-11-10T19:49:54.413Z,25.80
2022-11-10T19:52:26.070Z,31.10
2022-11-10T19:54:58.751Z,33.50
2022-11-10T19:57:31.426Z,29.40
2022-11-10T20:00:05.131Z,28.50
2022-11-10T20:02:45.197Z,30.80
2022-11-10T20:05:18.254Z,38.60
2022-11-10T20:08:09.919Z,19.80
2022-11-10T20:10:46.945Z,36.00
2022-11-10T20:13:19.885Z,33.60
2022-11-10T20:15:52.951Z,27.90
2022-11-10T20:18:24.795Z,31.00
2022-11-10T20:20:56.898Z,31.80
2022-11-10T20:23:28.582Z,32.10
2022-11-10T20:26:10.372Z,32.30
2022-11-10T20:28:42.548Z,28.50
2022-11-10T20:31:20.500Z,33.50
2022-11-10T20:33:53.288Z,60.10
2022-11-10T20:36:28.113Z,27.10
2022-11-10T20:39:00.520Z,38.30
2022-11-10T20:41:33.663Z,29.10
2022-11-10T20:44:05.802Z,34.50
2022-11-10T20:46:53.999Z,25.50
2022-11-10T20:49:26.333Z,36.20
2022-11-10T20:52:02.128Z,30.10
2022-11-10T20:54:33.945Z,22.20
2022-11-10T20:57:05.737Z,34.60
2022-11-10T20:59:37.331Z,23.00
2022-11-10T21:02:10.471Z,39.10
2022-11-10T21:04:43.339Z,15.00
2022-11-10T21:07:15.472Z,30.60
2022-11-10T21:09:47.211Z,32.30
2022-11-10T21:12:36.588Z,28.40
2022-11-10T21:15:09.368Z,35.10
2022-11-10T21:17:44.121Z,36.70
2022-11-10T21:20:16.541Z,35.90
2022-11-10T21:22:49.165Z,31.60
2022-11-10T21:25:21.613Z,31.10
2022-11-10T21:27:53.180Z,43.10
2022-11-10T21:30:24.798Z,26.60
2022-11-10T21:32:56.814Z,35.40
2022-11-10T21:35:28.407Z,38.50
2022-11-10T21:38:01.688Z,49.70
2022-11-10T21:40:33.677Z,24.50
2022-11-10T21:43:06.102Z,36.40
2022-11-10T21:45:38.905Z,31.40
2022-11-10T21:48:11.245Z,32.90
2022-11-10T21:50:43.002Z,32.80
2022-11-10T21:53:14.618Z,35.50
2022-11-10T21:55:46.418Z,43.70
2022-11-10T21:58:18.554Z,43.10
2022-11-10T22:00:50.109Z,29.00
2022-11-10T22:03:22.133Z,38.20
2022-11-10T22:05:54.070Z,33.20
2022-11-10T22:08:25.816Z,29.20
2022-11-10T22:11:14.898Z,37.80
2022-11-10T22:14:05.203Z,23.00
2022-11-10T22:17:09.074Z,21.10
2022-11-10T22:19:41.260Z,21.00
2022-11-10T22:22:14.459Z,25.60
2022-11-10T22:24:46.538Z,28.80
2022-11-10T22:27:18.308Z,27.60
2022-11-10T22:29:50.327Z,32.70
2022-11-10T22:32:22.048Z,23.80
2022-11-10T22:34:54.048Z,27.60
2022-11-10T22:37:33.367Z,28.60
2022-11-10T22:40:23.339Z,27.60
2022-11-10T22:43:13.147Z,19.70
2022-11-10T22:45:48.135Z,30.20
2022-11-10T22:48:28.867Z,36.40
2022-11-10T22:51:01.213Z,21.00
2022-11-10T22:53:38.713Z,26.40
2022-11-10T22:56:11.392Z,27.60
2022-11-10T22:58:43.010Z,25.90
2022-11-10T23:01:15.480Z,24.50
2022-11-10T23:03:47.419Z,25.10
2022-11-10T23:06:19.171Z,18.50
2022-11-10T23:08:51.969Z,29.00
2022-11-10T23:11:25.547Z,29.30
2022-11-10T23:13:57.336Z,21.70
2022-11-10T23:16:30.657Z,34.40
2022-11-10T23:19:02.807Z,29.00
2022-11-10T23:21:34.631Z,31.50
2022-11-10T23:24:07.025Z,25.70
2022-11-10T23:26:38.911Z,28.10
2022-11-10T23:29:10.827Z,28.00
2022-11-10T23:31:43.144Z,42.00
2022-11-10T23:34:14.752Z,23.70
2022-11-10T23:36:47.089Z,36.20
2022-11-10T23:39:19.541Z,55.40
2022-11-10T23:41:51.665Z,66.50
2022-11-10T23:44:23.758Z,32.60
2022-11-10T23:46:55.854Z,39.00
2022-11-10T23:49:27.545Z,35.80
2022-11-10T23:51:59.228Z,58.00
2022-11-10T23:54:31.160Z,41.50
2022-11-10T23:57:03.464Z,41.80
2022-11-10T23:59:35.105Z,44.40
